Time;durP1;ratioP1;P1;durP2;ratioP2;P2;SDS_P1;SDS_P2;PMS_P1;PMS_P2;Temp;Humidity;BMP_temperature;BMP_pressure;BME280_temperature;BME280_humidity;BME280_pressure;Samples;Min_cycle;Max_cycle;Signal;HPM_P1;HPM_P2
2021/04/03 00:00:00;;;;;;;11.60;6.07;;;10.50;24.70;;;;;;5053970;28;20426;-64
2021/04/03 00:02:27;;;;;;;7.80;6.23;;;10.50;24.70;;;;;;5053276;28;20212;-61
2021/04/03 00:04:52;;;;;;;7.33;5.50;;;10.60;24.40;;;;;;5054911;28;20223;-63
2021/04/03 00:07:18;;;;;;;5.53;5.13;;;10.60;24.30;;;;;;5052044;28;20572;-63
2021/04/03 00:09:43;;;;;;;6.30;5.53;;;10.70;24.20;;;;;;5052890;28;20172;-64
2021/04/03 00:12:10;;;;;;;6.40;5.83;;;10.60;24.00;;;;;;5053620;28;20176;-63
2021/04/03 00:14:36;;;;;;;7.27;6.00;;;10.50;24.10;;;;;;5053691;28;20309;-63
2021/04/03 00:17:02;;;;;;;6.53;5.57;;;10.40;24.50;;;;;;5052798;28;20415;-62
2021/04/03 00:19:27;;;;;;;7.80;6.13;;;10.30;24.50;;;;;;5053422;28;20267;-62
2021/04/03 00:21:53;;;;;;;7.27;6.57;;;10.30;24.70;;;;;;5053352;28;20969;-62
2021/04/03 00:24:18;;;;;;;7.93;6.10;;;10.50;24.50;;;;;;5053189;28;20253;-63
2021/04/03 00:26:44;;;;;;;8.53;5.70;;;10.40;24.40;;;;;;5054190;28;20587;-64
2021/04/03 00:29:09;;;;;;;8.17;6.33;;;10.30;24.20;;;;;;5053062;28;20207;-64
2021/04/03 00:31:35;;;;;;;7.40;6.20;;;10.40;24.00;;;;;;5054162;28;20428;-64
2021/04/03 00:34:01;;;;;;;6.80;6.30;;;10.40;24.00;;;;;;5053711;28;20206;-63
2021/04/03 00:36:26;;;;;;;6.40;5.80;;;10.30;23.90;;;;;;5056016;28;20298;-64
2021/04/03 00:38:55;;;;;;;6.77;6.17;;;10.30;23.40;;;;;;5052905;28;20278;-65
2021/04/03 00:41:21;;;;;;;8.00;6.30;;;10.20;23.60;;;;;;5053813;28;20212;-64
2021/04/03 00:43:46;;;;;;;6.83;6.30;;;10.40;23.40;;;;;;5052960;28;20480;-64
2021/04/03 00:46:12;;;;;;;9.03;6.53;;;10.20;22.90;;;;;;5052967;28;20176;-64
2021/04/03 00:48:38;;;;;;;7.53;6.83;;;10.10;22.90;;;;;;5051585;28;20274;-64
2021/04/03 00:51:04;;;;;;;6.80;6.13;;;10.20;22.60;;;;;;5052965;28;20172;-63
2021/04/03 00:53:30;;;;;;;8.47;6.77;;;10.20;22.50;;;;;;5052666;28;20666;-64
2021/04/03 00:55:56;;;;;;;7.57;6.17;;;10.20;22.40;;;;;;5052113;28;20510;-64
2021/04/03 00:58:22;;;;;;;7.53;5.87;;;10.00;22.50;;;;;;5052008;28;20920;-64
2021/04/03 01:00:49;;;;;;;7.20;6.10;;;10.00;22.60;;;;;;5053131;28;20196;-64
2021/04/03 01:03:15;;;;;;;7.00;5.97;;;10.00;22.60;;;;;;5051336;28;20430;-64
2021/04/03 01:05:42;;;;;;;8.10;6.40;;;10.20;22.50;;;;;;5052834;28;20795;-65
2021/04/03 01:08:08;;;;;;;7.70;6.90;;;10.10;22.40;;;;;;5052062;28;20457;-64
2021/04/03 01:10:36;;;;;;;6.43;5.83;;;10.10;22.40;;;;;;5051568;28;20485;-64
2021/04/03 01:13:13;;;;;;;5.93;5.43;;;10.10;22.50;;;;;;5052429;28;20933;-64
2021/04/03 01:15:52;;;;;;;7.20;4.97;;;10.10;22.50;;;;;;5052539;28;20413;-65
2021/04/03 01:18:35;;;;;;;5.77;5.17;;;10.10;22.40;;;;;;5051068;28;20410;-64
2021/04/03 01:21:06;;;;;;;6.27;5.67;;;10.10;22.30;;;;;;5052576;28;20816;-64
2021/04/03 01:24:10;;;;;;;6.00;5.43;;;10.00;22.30;;;;;;5051590;28;20528;-65
2021/04/03 01:27:03;;;;;;;5.80;5.23;;;10.10;22.30;;;;;;5052109;28;20501;-64
2021/04/03 01:29:28;;;;;;;6.23;5.63;;;10.00;22.10;;;;;;5052246;28;20440;-64
2021/04/03 01:31:56;;;;;;;6.33;5.70;;;9.80;23.20;;;;;;5051450;28;20415;-63
2021/04/03 01:34:27;;;;;;;6.90;5.70;;;9.80;23.20;;;;;;5052051;28;20306;-64
2021/04/03 01:37:03;;;;;;;7.43;6.07;;;9.90;23.50;;;;;;5052132;28;20419;-64
2021/04/03 01:39:30;;;;;;;6.47;5.97;;;9.90;23.20;;;;;;5051156;28;20895;-64
2021/04/03 01:42:00;;;;;;;7.40;5.77;;;10.00;22.30;;;;;;5050627;28;20458;-65
2021/04/03 01:44:32;;;;;;;6.07;5.47;;;10.10;22.40;;;;;;5052061;28;20429;-64
2021/04/03 01:46:58;;;;;;;6.07;5.57;;;10.00;22.40;;;;;;5051112;28;20456;-63
2021/04/03 01:49:25;;;;;;;6.10;5.30;;;10.00;22.30;;;;;;5051687;28;20882;-64
2021/04/03 01:51:51;;;;;;;9.17;5.90;;;10.00;22.60;;;;;;5051485;28;20418;-65
2021/04/03 01:54:20;;;;;;;6.23;5.63;;;10.10;22.40;;;;;;5051082;28;20903;-65
2021/04/03 01:56:48;;;;;;;6.37;5.60;;;10.10;22.30;;;;;;5051557;28;20468;-63
2021/04/03 01:59:14;;;;;;;6.33;5.27;;;10.20;22.20;;;;;;5050941;28;20418;-63
2021/04/03 02:01:42;;;;;;;7.67;5.47;;;10.10;22.20;;;;;;5050857;28;20454;-65
2021/04/03 02:04:11;;;;;;;8.37;5.93;;;10.10;22.60;;;;;;5051434;28;20484;-64
2021/04/03 02:06:43;;;;;;;6.93;6.20;;;10.00;22.80;;;;;;5051411;28;20435;-64
2021/04/03 02:09:12;;;;;;;5.73;5.23;;;10.10;22.50;;;;;;5050385;28;20500;-65
2021/04/03 02:11:41;;;;;;;8.80;6.07;;;9.70;24.30;;;;;;5051229;28;20959;-64
2021/04/03 02:14:07;;;;;;;6.60;5.83;;;9.60;24.60;;;;;;5050118;28;20580;-64
2021/04/03 02:16:35;;;;;;;6.57;5.40;;;9.80;23.80;;;;;;5050485;28;20423;-64
2021/04/03 02:19:05;;;;;;;8.27;5.87;;;9.90;24.00;;;;;;5050591;28;20779;-64
2021/04/03 02:21:32;;;;;;;9.60;6.80;;;9.70;24.10;;;;;;5051137;28;20507;-64
2021/04/03 02:23:58;;;;;;;7.87;5.43;;;9.80;24.50;;;;;;5050342;28;20431;-63
2021/04/03 02:26:23;;;;;;;10.13;6.63;;;10.00;23.20;;;;;;5051123;28;20513;-64
2021/04/03 02:28:50;;;;;;;7.23;6.63;;;10.00;23.20;;;;;;5050836;28;20449;-64
2021/04/03 02:31:16;;;;;;;6.50;6.00;;;10.00;23.20;;;;;;5050711;28;20171;-64
2021/04/03 02:33:41;;;;;;;6.23;5.63;;;10.00;23.20;;;;;;5050166;28;20438;-64
2021/04/03 02:36:07;;;;;;;5.90;5.40;;;9.90;24.10;;;;;;5051691;28;20184;-65
2021/04/03 02:38:33;;;;;;;8.03;5.57;;;9.90;23.90;;;;;;5050102;28;20670;-65
2021/04/03 02:40:59;;;;;;;6.00;4.60;;;9.80;23.80;;;;;;5050645;28;20199;-65
2021/04/03 02:43:31;;;;;;;6.90;5.50;;;9.80;24.10;;;;;;5050843;28;20782;-65
2021/04/03 02:46:11;;;;;;;8.83;5.70;;;9.80;24.00;;;;;;5050146;28;20552;-64
2021/04/03 02:48:39;;;;;;;5.70;5.00;;;9.70;24.10;;;;;;5050238;28;20390;-64
2021/04/03 02:51:07;;;;;;;10.53;6.33;;;9.90;23.90;;;;;;5050697;28;20414;-64
2021/04/03 02:53:34;;;;;;;6.53;5.33;;;9.70;23.80;;;;;;5049864;28;20446;-64
2021/04/03 02:56:02;;;;;;;6.33;5.50;;;9.80;23.90;;;;;;5050796;28;20410;-64
2021/04/03 02:58:33;;;;;;;8.47;5.23;;;9.90;23.90;;;;;;5049891;28;20431;-63
2021/04/03 03:00:59;;;;;;;7.20;5.40;;;9.80;23.80;;;;;;5050155;28;20462;-64
2021/04/03 03:03:26;;;;;;;8.30;5.60;;;9.80;23.80;;;;;;5052407;28;20433;-64
2021/04/03 03:05:57;;;;;;;5.50;4.87;;;9.80;24.10;;;;;;5052041;28;20407;-65
2021/04/03 03:08:24;;;;;;;9.90;6.00;;;9.60;23.90;;;;;;5069423;28;20417;-64
2021/04/03 03:10:51;;;;;;;5.63;5.13;;;9.60;24.10;;;;;;5059412;28;20506;-63
2021/04/03 03:13:18;;;;;;;6.50;4.87;;;9.60;24.90;;;;;;5061732;28;20502;-64
2021/04/03 03:15:44;;;;;;;5.57;4.67;;;9.80;23.80;;;;;;5053011;28;20429;-64
2021/04/03 03:18:10;;;;;;;5.23;4.53;;;9.80;23.80;;;;;;5059024;28;20508;-64
2021/04/03 03:20:36;;;;;;;5.90;5.30;;;10.00;23.20;;;;;;5055591;28;20215;-64
2021/04/03 03:23:02;;;;;;;8.97;5.83;;;10.10;23.20;;;;;;5049602;28;20469;-63
2021/04/03 03:25:28;;;;;;;6.03;5.43;;;10.00;23.10;;;;;;5051594;28;20476;-63
2021/04/03 03:27:55;;;;;;;5.33;4.83;;;10.10;22.60;;;;;;5053106;28;20563;-63
2021/04/03 03:30:22;;;;;;;5.27;4.80;;;10.10;23.30;;;;;;5066712;28;20176;-64
2021/04/03 03:32:48;;;;;;;7.10;5.00;;;10.00;23.00;;;;;;5069993;28;20805;-64
2021/04/03 03:35:15;;;;;;;7.53;5.30;;;9.90;23.90;;;;;;5054246;28;20419;-64
2021/04/03 03:37:42;;;;;;;6.67;5.47;;;9.80;23.80;;;;;;5068862;28;20195;-64
2021/04/03 03:40:10;;;;;;;4.93;4.40;;;9.70;23.80;;;;;;5074045;28;20416;-64
2021/04/03 03:42:36;;;;;;;7.27;4.93;;;9.60;24.50;;;;;;5074202;28;20817;-63
2021/04/03 03:45:06;;;;;;;6.67;4.47;;;9.30;24.20;;;;;;5073493;28;20409;-64
2021/04/03 03:47:31;;;;;;;6.30;5.20;;;9.70;23.90;;;;;;5053512;28;20410;-64
2021/04/03 03:49:57;;;;;;;6.27;5.67;;;9.80;23.80;;;;;;5055272;28;20406;-65
2021/04/03 03:52:23;;;;;;;5.57;5.17;;;9.90;23.90;;;;;;5073366;28;20213;-64
2021/04/03 03:54:48;;;;;;;8.03;5.20;;;9.90;23.60;;;;;;5073915;28;20264;-64
2021/04/03 03:57:14;;;;;;;10.83;5.37;;;9.70;23.70;;;;;;5073614;28;20650;-64
2021/04/03 03:59:40;;;;;;;6.93;5.03;;;9.80;23.80;;;;;;5072919;28;20260;-64
2021/04/03 04:02:05;;;;;;;4.50;4.20;;;9.70;23.80;;;;;;5073632;28;20230;-65
2021/04/03 04:04:31;;;;;;;5.90;4.47;;;9.70;23.80;;;;;;5073764;28;20199;-64
2021/04/03 04:06:56;;;;;;;5.97;5.30;;;9.60;23.70;;;;;;5073068;28;20656;-64
2021/04/03 04:09:22;;;;;;;7.70;5.20;;;9.60;24.20;;;;;;5073045;28;20167;-65
2021/04/03 04:11:47;;;;;;;7.77;4.90;;;9.60;23.70;;;;;;5073811;28;20179;-65
2021/04/03 04:14:13;;;;;;;5.80;5.07;;;9.70;23.80;;;;;;5072881;28;20248;-64
2021/04/03 04:16:39;;;;;;;6.93;5.37;;;9.20;24.80;;;;;;5073547;28;20654;-63
2021/04/03 04:19:05;;;;;;;4.90;4.50;;;9.50;24.70;;;;;;5072962;28;20176;-64
2021/04/03 04:21:30;;;;;;;4.80;4.40;;;9.50;24.60;;;;;;5072675;28;20215;-64
2021/04/03 04:23:56;;;;;;;5.70;4.73;;;9.40;24.60;;;;;;5073118;28;20441;-64
2021/04/03 04:26:21;;;;;;;6.03;5.30;;;9.50;25.00;;;;;;5073419;28;20255;-62
2021/04/03 04:28:47;;;;;;;4.63;4.23;;;9.30;24.60;;;;;;5072006;28;20202;-65
2021/04/03 04:31:13;;;;;;;7.83;4.70;;;9.40;24.90;;;;;;5073429;28;20237;-65
2021/04/03 04:33:39;;;;;;;7.43;5.10;;;9.40;24.80;;;;;;5073143;28;20438;-63
2021/04/03 04:36:05;;;;;;;5.40;4.90;;;9.60;24.90;;;;;;5071867;28;20429;-63
2021/04/03 04:38:30;;;;;;;4.90;4.50;;;9.60;24.30;;;;;;5071649;28;20252;-65
2021/04/03 04:40:56;;;;;;;7.20;4.97;;;9.60;24.70;;;;;;5066725;28;20217;-65
2021/04/03 04:43:22;;;;;;;6.03;4.50;;;9.40;24.60;;;;;;5057506;28;20675;-63
2021/04/03 04:45:48;;;;;;;7.97;5.80;;;9.20;25.20;;;;;;5053436;28;20210;-64
2021/04/03 04:48:13;;;;;;;5.90;4.70;;;8.80;25.50;;;;;;5052425;28;20406;-64
2021/04/03 04:50:39;;;;;;;7.37;4.77;;;9.00;26.20;;;;;;5063029;28;20418;-64
2021/04/03 04:53:08;;;;;;;6.63;5.20;;;9.40;25.20;;;;;;5064144;28;20211;-64
2021/04/03 04:55:58;;;;;;;7.43;4.63;;;9.50;25.20;;;;;;5061969;28;20426;-64
2021/04/03 04:58:23;;;;;;;8.90;4.50;;;9.60;24.20;;;;;;5058961;28;20815;-63
2021/04/03 05:00:49;;;;;;;7.67;5.57;;;9.70;24.30;;;;;;5059894;28;20425;-63
2021/04/03 05:03:14;;;;;;;5.83;4.90;;;9.70;24.30;;;;;;5061450;28;20204;-64
2021/04/03 05:05:40;;;;;;;8.40;5.10;;;9.80;24.30;;;;;;5060636;28;20255;-64
2021/04/03 05:08:05;;;;;;;5.33;4.23;;;9.60;24.20;;;;;;5058385;28;20708;-64
2021/04/03 05:10:31;;;;;;;5.30;4.90;;;9.60;24.50;;;;;;5052183;28;20700;-63
2021/04/03 05:13:00;;;;;;;4.80;4.03;;;9.40;24.60;;;;;;5061145;28;20700;-64
2021/04/03 05:15:26;;;;;;;5.10;4.70;;;9.40;24.60;;;;;;5052551;28;20196;-65
2021/04/03 05:17:51;;;;;;;7.30;5.67;;;9.30;24.80;;;;;;5061434;28;20430;-63
2021/04/03 05:20:17;;;;;;;6.50;5.20;;;9.30;25.50;;;;;;5071742;28;20207;-65
2021/04/03 05:22:42;;;;;;;5.00;4.13;;;9.40;25.60;;;;;;5071868;28;20606;-63
2021/04/03 05:25:09;;;;;;;5.80;4.70;;;9.50;24.90;;;;;;5065792;28;20274;-63
2021/04/03 05:27:34;;;;;;;5.00;4.50;;;9.30;25.50;;;;;;5062995;28;20244;-64
2021/04/03 05:30:00;;;;;;;5.40;4.90;;;9.40;25.40;;;;;;5068973;28;20410;-64
2021/04/03 05:32:25;;;;;;;5.67;4.30;;;9.30;25.10;;;;;;5050952;28;20176;-64
2021/04/03 05:34:51;;;;;;;4.80;4.40;;;9.60;24.60;;;;;;5051952;28;20196;-63
2021/04/03 05:37:16;;;;;;;6.30;4.87;;;9.70;24.50;;;;;;5050086;28;20168;-64
2021/04/03 05:39:42;;;;;;;5.87;4.50;;;9.60;24.50;;;;;;5051851;28;20188;-64
2021/04/03 05:42:13;;;;;;;5.00;4.50;;;9.60;24.60;;;;;;5051947;28;20204;-63
2021/04/03 05:44:40;;;;;;;5.47;5.00;;;9.70;24.40;;;;;;5051286;28;20191;-64
2021/04/03 05:47:08;;;;;;;5.17;4.60;;;9.50;24.40;;;;;;5051422;28;20418;-64
2021/04/03 05:49:34;;;;;;;8.67;4.03;;;9.40;24.90;;;;;;5051724;28;20411;-64
2021/04/03 05:52:00;;;;;;;6.03;4.50;;;9.60;24.40;;;;;;5051214;28;20420;-63
2021/04/03 05:54:26;;;;;;;7.67;4.80;;;9.70;24.80;;;;;;5051693;28;20441;-63
2021/04/03 05:56:54;;;;;;;7.37;4.50;;;9.70;24.20;;;;;;5051656;28;20493;-64
2021/04/03 05:59:19;;;;;;;5.43;4.40;;;9.70;24.60;;;;;;5050420;28;20180;-64
2021/04/03 06:01:45;;;;;;;7.17;5.03;;;9.70;24.50;;;;;;5051382;28;20453;-64
2021/04/03 06:04:11;;;;;;;4.50;3.80;;;9.70;24.50;;;;;;5051581;28;20733;-64
2021/04/03 06:06:39;;;;;;;5.63;4.43;;;9.70;24.50;;;;;;5050732;28;20172;-64
2021/04/03 06:09:05;;;;;;;6.20;4.73;;;9.60;24.90;;;;;;5050932;28;20245;-64
2021/04/03 06:11:42;;;;;;;4.33;3.67;;;9.70;25.00;;;;;;5051387;28;20517;-63
2021/04/03 06:14:07;;;;;;;4.27;3.97;;;9.80;24.50;;;;;;5050587;28;20430;-64
2021/04/03 06:16:35;;;;;;;5.63;4.10;;;9.70;24.70;;;;;;5051206;28;20417;-63
2021/04/03 06:19:17;;;;;;;5.13;4.73;;;9.60;25.30;;;;;;5050469;28;20184;-64
2021/04/03 06:21:47;;;;;;;4.40;4.00;;;9.70;24.90;;;;;;5063414;28;20597;-64
2021/04/03 06:24:22;;;;;;;8.03;4.00;;;9.40;25.50;;;;;;5069337;28;20883;-62
2021/04/03 06:27:00;;;;;;;4.33;3.70;;;9.50;25.30;;;;;;5069036;28;20445;-64
2021/04/03 06:29:37;;;;;;;5.53;4.23;;;9.50;25.30;;;;;;5070271;28;20509;-64
2021/04/03 06:32:04;;;;;;;4.10;3.80;;;9.20;25.80;;;;;;5071027;28;20954;-63
2021/04/03 06:34:32;;;;;;;5.37;3.70;;;9.30;25.70;;;;;;5070200;28;20425;-63
2021/04/03 06:36:59;;;;;;;5.97;4.50;;;9.40;25.70;;;;;;5070663;28;20463;-64
2021/04/03 06:39:25;;;;;;;6.63;4.20;;;9.40;25.30;;;;;;5070506;28;20433;-63
2021/04/03 06:41:51;;;;;;;5.30;4.20;;;9.50;25.50;;;;;;5070162;28;20821;-63
2021/04/03 06:44:16;;;;;;;6.40;5.80;;;9.30;25.80;;;;;;5070991;28;20798;-64
2021/04/03 06:46:44;;;;;;;4.23;3.83;;;9.50;25.70;;;;;;5071011;28;20458;-63
2021/04/03 06:49:11;;;;;;;4.27;3.70;;;9.60;25.10;;;;;;5069333;28;20179;-64
2021/04/03 06:51:37;;;;;;;3.57;3.27;;;9.40;25.20;;;;;;5071089;28;20900;-64
2021/04/03 06:54:05;;;;;;;4.33;3.90;;;9.50;25.30;;;;;;5070853;28;20438;-64
2021/04/03 06:56:33;;;;;;;4.53;4.17;;;9.30;25.70;;;;;;5070650;28;20413;-64
2021/04/03 06:59:08;;;;;;;5.10;3.30;;;9.30;25.70;;;;;;5070082;28;20770;-64
2021/04/03 07:01:49;;;;;;;5.00;3.77;;;9.50;26.40;;;;;;5070394;28;20483;-64
2021/04/03 07:04:30;;;;;;;7.80;4.00;;;9.60;25.80;;;;;;5069763;28;20429;-64
2021/04/03 07:06:57;;;;;;;4.13;3.50;;;11.80;39.70;;;;;;5070573;28;20409;-65
2021/04/03 07:09:24;;;;;;;4.50;4.03;;;12.90;28.50;;;;;;5063669;28;20433;-64
2021/04/03 07:11:52;;;;;;;4.47;4.07;;;12.60;35.90;;;;;;5051173;28;20422;-64
2021/04/03 07:14:19;;;;;;;5.27;3.40;;;12.10;27.30;;;;;;5050351;28;20431;-64
2021/04/03 07:16:47;;;;;;;4.43;3.40;;;12.50;34.00;;;;;;5056278;28;21126;-64
2021/04/03 07:19:14;;;;;;;6.97;4.10;;;12.30;29.50;;;;;;5064123;28;20414;-63
2021/04/03 07:21:41;;;;;;;7.90;4.13;;;12.00;22.40;;;;;;5068481;28;20491;-65
2021/04/03 07:24:11;;;;;;;4.67;4.30;;;11.10;22.40;;;;;;5061953;28;20438;-63
2021/04/03 07:26:42;;;;;;;5.30;4.80;;;10.80;23.00;;;;;;5064127;28;20414;-63
2021/04/03 07:29:07;;;;;;;4.60;4.10;;;10.70;23.70;;;;;;5060047;28;20429;-63
2021/04/03 07:31:41;;;;;;;6.67;4.27;;;10.40;23.50;;;;;;5056493;28;20457;-63
2021/04/03 07:34:08;;;;;;;4.60;3.77;;;10.30;23.90;;;;;;5060871;28;20209;-63
2021/04/03 07:36:38;;;;;;;4.70;4.23;;;10.10;23.90;;;;;;5052805;28;20426;-63
2021/04/03 07:39:06;;;;;;;4.13;3.20;;;10.10;24.20;;;;;;5059995;28;20441;-63
2021/04/03 07:41:37;;;;;;;4.80;3.60;;;10.00;23.90;;;;;;5069343;28;20540;-64
2021/04/03 07:44:14;;;;;;;3.90;3.30;;;10.10;23.90;;;;;;5070171;28;20418;-63
2021/04/03 07:46:45;;;;;;;4.00;3.70;;;10.20;23.50;;;;;;5070367;28;20551;-63
2021/04/03 07:49:30;;;;;;;3.67;3.33;;;10.30;23.40;;;;;;5068978;28;20424;-63
2021/04/03 07:51:56;;;;;;;4.50;4.00;;;10.30;23.40;;;;;;5070210;28;20428;-63
2021/04/03 07:54:29;;;;;;;11.73;4.60;;;10.40;23.50;;;;;;5070055;28;20552;-63
2021/04/03 07:56:57;;;;;;;4.53;3.70;;;10.20;23.40;;;;;;5069439;28;20199;-63
2021/04/03 07:59:55;;;;;;;5.50;4.27;;;10.10;23.80;;;;;;5069872;28;20404;-64
2021/04/03 08:02:23;;;;;;;4.83;4.43;;;10.10;23.70;;;;;;5046732;28;20473;-63
2021/04/03 08:04:49;;;;;;;3.93;3.53;;;10.00;23.60;;;;;;5069340;28;20433;-62
2021/04/03 08:07:18;;;;;;;4.07;3.10;;;9.80;24.90;;;;;;5069716;28;20857;-63
2021/04/03 08:09:44;;;;;;;5.50;3.63;;;9.70;24.60;;;;;;5070038;28;20841;-64
2021/04/03 08:12:10;;;;;;;5.10;4.17;;;9.80;24.40;;;;;;5066225;28;20516;-64
2021/04/03 08:14:36;;;;;;;3.57;3.20;;;9.80;24.80;;;;;;5054141;28;20318;-63
2021/04/03 08:17:04;;;;;;;3.57;3.27;;;9.80;24.70;;;;;;5061182;28;20184;-63
2021/04/03 08:19:33;;;;;;;3.60;2.97;;;9.60;24.70;;;;;;5072758;28;20417;-64
2021/04/03 08:21:59;;;;;;;6.93;2.93;;;9.70;24.30;;;;;;5073562;28;20460;-64
2021/04/03 08:24:25;;;;;;;3.67;3.37;;;9.80;23.90;;;;;;5054519;28;20442;-64
2021/04/03 08:26:52;;;;;;;5.97;3.17;;;9.70;24.20;;;;;;5053157;28;20403;-63
2021/04/03 08:29:21;;;;;;;4.10;3.67;;;9.80;24.40;;;;;;5054988;28;20956;-63
2021/04/03 08:31:49;;;;;;;4.20;3.03;;;9.90;24.30;;;;;;5059301;28;20501;-64
2021/04/03 08:34:14;;;;;;;3.13;2.87;;;9.90;24.40;;;;;;5052452;28;20422;-64
2021/04/03 08:36:40;;;;;;;3.63;3.33;;;10.10;24.00;;;;;;5059072;28;20429;-64
2021/04/03 08:39:08;;;;;;;4.20;3.63;;;10.10;23.30;;;;;;5066448;28;20738;-62
2021/04/03 08:41:35;;;;;;;4.43;3.77;;;10.10;23.30;;;;;;5056535;28;20810;-63
2021/04/03 08:44:01;;;;;;;3.07;2.87;;;10.10;23.20;;;;;;5059097;28;20528;-62
2021/04/03 08:46:26;;;;;;;3.10;2.80;;;10.10;23.30;;;;;;5054309;28;20521;-63
2021/04/03 08:48:57;;;;;;;3.57;2.70;;;10.10;23.30;;;;;;5058121;28;20361;-64
2021/04/03 08:51:24;;;;;;;4.60;3.53;;;10.20;23.40;;;;;;5059358;28;20624;-64
2021/04/03 08:53:54;;;;;;;3.37;2.73;;;10.20;23.40;;;;;;5060819;28;20449;-63
2021/04/03 08:56:31;;;;;;;6.80;2.63;;;10.40;23.20;;;;;;5059536;28;20481;-64
2021/04/03 08:59:00;;;;;;;4.37;2.77;;;10.50;22.60;;;;;;5057392;28;20496;-63
2021/04/03 09:01:27;;;;;;;3.20;2.90;;;10.50;22.50;;;;;;5051358;28;20537;-63
2021/04/03 09:03:58;;;;;;;4.93;3.03;;;10.60;22.40;;;;;;5052364;28;20792;-63
2021/04/03 09:06:55;;;;;;;3.30;2.87;;;10.70;22.30;;;;;;5061251;28;20920;-63
2021/04/03 09:09:28;;;;;;;3.87;3.07;;;10.70;22.40;;;;;;5071844;28;20401;-64
2021/04/03 09:11:59;;;;;;;5.20;4.60;;;10.70;22.20;;;;;;5072190;28;20513;-64
2021/04/03 09:14:29;;;;;;;6.80;3.13;;;10.70;22.20;;;;;;5072504;28;20422;-66
2021/04/03 09:16:56;;;;;;;4.53;3.17;;;10.70;22.20;;;;;;5072472;28;20397;-64
2021/04/03 09:19:30;;;;;;;5.53;3.07;;;10.70;22.00;;;;;;5071056;28;20455;-63
2021/04/03 09:21:57;;;;;;;4.37;2.70;;;10.90;21.70;;;;;;5072220;28;20484;-63
2021/04/03 09:24:31;;;;;;;4.50;3.07;;;10.90;21.50;;;;;;5067357;28;20441;-62
2021/04/03 09:27:10;;;;;;;3.27;2.93;;;10.70;21.70;;;;;;5061712;28;20437;-64
2021/04/03 09:29:36;;;;;;;5.40;3.20;;;10.90;21.30;;;;;;5062010;28;20454;-64
2021/04/03 09:32:06;;;;;;;3.20;3.00;;;11.20;22.60;;;;;;5070190;28;20453;-64
2021/04/03 09:34:33;;;;;;;3.73;3.33;;;11.30;20.30;;;;;;5071785;28;20433;-63
2021/04/03 09:37:11;;;;;;;3.50;3.20;;;11.50;20.10;;;;;;5062273;28;20414;-62
2021/04/03 09:39:51;;;;;;;3.30;2.33;;;11.50;19.20;;;;;;5060485;28;20430;-63
2021/04/03 09:42:19;;;;;;;3.43;3.13;;;11.10;20.10;;;;;;5067091;28;20457;-64
2021/04/03 09:44:46;;;;;;;7.40;3.50;;;10.80;20.40;;;;;;5060373;28;20429;-63
2021/04/03 09:47:12;;;;;;;7.37;3.20;;;11.20;20.40;;;;;;5058754;28;20501;-63
2021/04/03 09:49:39;;;;;;;3.70;3.10;;;11.20;20.40;;;;;;5061836;28;20413;-64
2021/04/03 09:52:06;;;;;;;4.87;3.00;;;11.30;20.00;;;;;;5057180;28;20450;-64
2021/04/03 09:54:31;;;;;;;3.43;3.13;;;11.40;19.70;;;;;;5053674;28;20541;-64
2021/04/03 09:56:57;;;;;;;4.53;3.60;;;11.60;19.30;;;;;;5065077;28;20512;-64
2021/04/03 09:59:23;;;;;;;3.70;3.00;;;11.80;18.90;;;;;;5061096;28;20183;-63
2021/04/03 10:01:49;;;;;;;4.37;2.90;;;11.90;18.70;;;;;;5060889;28;21156;-63
2021/04/03 10:04:15;;;;;;;6.20;3.43;;;12.00;18.10;;;;;;5054945;28;21107;-63
2021/04/03 10:06:41;;;;;;;3.63;3.23;;;12.00;18.10;;;;;;5051650;28;20417;-64
2021/04/03 10:09:06;;;;;;;3.57;2.80;;;12.00;18.30;;;;;;5050629;28;20639;-63
2021/04/03 10:11:32;;;;;;;4.00;3.40;;;12.00;18.40;;;;;;5061956;28;20282;-63
2021/04/03 10:13:58;;;;;;;5.80;3.33;;;12.30;18.30;;;;;;5070922;28;20198;-63
2021/04/03 10:16:23;;;;;;;3.37;3.00;;;12.30;18.80;;;;;;5069524;28;21038;-63
2021/04/03 10:18:49;;;;;;;5.03;3.57;;;12.20;18.40;;;;;;5070060;28;20643;-63
2021/04/03 10:21:14;;;;;;;4.47;3.60;;;12.10;18.60;;;;;;5067221;28;20252;-63
2021/04/03 10:23:40;;;;;;;3.80;3.50;;;12.00;18.60;;;;;;5060456;28;20234;-62
2021/04/03 10:26:06;;;;;;;4.60;3.90;;;12.00;18.70;;;;;;5070279;28;20654;-63
2021/04/03 10:28:33;;;;;;;3.60;2.73;;;12.10;18.50;;;;;;5070234;28;20172;-63
2021/04/03 10:30:58;;;;;;;5.33;3.20;;;12.10;18.10;;;;;;5064918;28;20282;-63
2021/04/03 10:33:24;;;;;;;3.83;3.37;;;12.10;18.00;;;;;;5050093;28;20437;-63
2021/04/03 10:35:49;;;;;;;4.90;3.40;;;12.20;18.30;;;;;;5049347;28;20204;-63
2021/04/03 10:38:15;;;;;;;4.10;3.27;;;12.00;18.50;;;;;;5050190;28;20245;-65
2021/04/03 10:40:41;;;;;;;3.47;3.20;;;11.80;18.90;;;;;;5050160;28;20214;-63
2021/04/03 10:43:06;;;;;;;3.83;2.93;;;11.80;18.70;;;;;;5050670;28;20269;-63
2021/04/03 10:45:31;;;;;;;4.83;3.67;;;11.80;19.10;;;;;;5050834;28;20172;-63
2021/04/03 10:47:57;;;;;;;4.30;4.00;;;11.60;19.30;;;;;;5049542;28;20237;-63
2021/04/03 10:50:26;;;;;;;3.93;3.53;;;11.90;19.00;;;;;;5050680;28;20262;-63
2021/04/03 10:52:51;;;;;;;8.03;3.20;;;11.90;18.50;;;;;;5050658;28;20191;-63
2021/04/03 10:55:17;;;;;;;3.00;2.80;;;11.80;19.00;;;;;;5049999;28;20406;-64
2021/04/03 10:57:43;;;;;;;5.03;3.13;;;11.70;19.00;;;;;;5050013;28;20187;-63
2021/04/03 11:00:09;;;;;;;4.90;3.30;;;11.90;19.10;;;;;;5056388;28;20426;-63
2021/04/03 11:02:34;;;;;;;4.43;3.23;;;11.90;18.90;;;;;;5052173;28;20564;-63
2021/04/03 11:05:00;;;;;;;4.37;2.70;;;11.90;18.40;;;;;;5059386;28;20438;-63
2021/04/03 11:07:25;;;;;;;3.30;3.00;;;11.90;18.00;;;;;;5050251;28;20172;-63
2021/04/03 11:09:52;;;;;;;4.00;3.53;;;12.00;17.60;;;;;;5049649;28;20597;-63
2021/04/03 11:12:18;;;;;;;3.27;2.97;;;12.10;17.70;;;;;;5049535;28;20515;-63
2021/04/03 11:14:44;;;;;;;4.03;3.53;;;12.00;17.90;;;;;;5050703;28;20439;-64
2021/04/03 11:17:10;;;;;;;5.13;3.40;;;12.00;18.00;;;;;;5049249;28;20484;-64
2021/04/03 11:19:36;;;;;;;3.50;2.80;;;12.30;17.90;;;;;;5050643;28;20176;-63
2021/04/03 11:22:03;;;;;;;2.83;2.63;;;12.60;17.00;;;;;;5050655;28;20531;-63
2021/04/03 11:24:29;;;;;;;4.10;2.73;;;13.00;17.00;;;;;;5048685;28;20227;-63
2021/04/03 11:26:54;;;;;;;8.83;6.10;;;12.90;16.90;;;;;;5050560;28;20450;-63
2021/04/03 11:29:20;;;;;;;3.67;3.37;;;12.80;15.90;;;;;;5056149;28;20183;-63
2021/04/03 11:31:47;;;;;;;4.50;2.97;;;12.70;16.40;;;;;;5069853;28;20211;-63
2021/04/03 11:34:12;;;;;;;3.47;2.60;;;12.60;16.70;;;;;;5070623;28;20282;-63
2021/04/03 11:36:38;;;;;;;3.37;2.70;;;13.20;16.10;;;;;;5070598;28;20825;-63
2021/04/03 11:39:06;;;;;;;4.10;3.10;;;13.50;15.20;;;;;;5068888;28;20274;-63
2021/04/03 11:41:31;;;;;;;3.10;2.37;;;13.80;14.90;;;;;;5070433;28;20202;-64
2021/04/03 11:43:57;;;;;;;2.47;2.20;;;14.00;14.90;;;;;;5070305;28;20485;-64
2021/04/03 11:46:23;;;;;;;5.50;2.70;;;14.20;14.10;;;;;;5070965;28;20178;-63
2021/04/03 11:48:49;;;;;;;4.10;2.93;;;14.50;14.20;;;;;;5063211;28;20175;-64
2021/04/03 11:51:15;;;;;;;6.20;3.47;;;14.40;14.30;;;;;;5074058;28;20420;-63
2021/04/03 11:53:41;;;;;;;3.40;3.20;;;14.20;14.50;;;;;;5064420;28;20234;-64
2021/04/03 11:56:07;;;;;;;3.53;3.17;;;14.00;14.80;;;;;;5074211;28;20175;-66
2021/04/03 11:58:33;;;;;;;2.90;2.70;;;13.80;14.50;;;;;;5061053;28;20438;-64
2021/04/03 12:00:59;;;;;;;3.27;2.73;;;13.50;15.50;;;;;;5072276;28;20183;-64
2021/04/03 12:03:27;;;;;;;4.20;3.67;;;13.40;15.50;;;;;;5076634;28;20172;-66
2021/04/03 12:05:53;;;;;;;8.60;4.33;;;13.20;16.20;;;;;;5075398;28;20206;-66
2021/04/03 12:08:18;;;;;;;3.30;3.00;;;13.20;16.40;;;;;;5071904;28;20445;-64
2021/04/03 12:10:44;;;;;;;2.60;2.40;;;13.10;16.00;;;;;;5073560;28;20176;-65
2021/04/03 12:13:11;;;;;;;2.67;2.47;;;13.10;15.40;;;;;;5073481;28;20195;-65
2021/04/03 12:15:38;;;;;;;2.43;1.93;;;12.90;15.00;;;;;;5072787;28;20424;-66
2021/04/03 12:18:04;;;;;;;3.10;2.90;;;13.00;14.90;;;;;;5073171;28;20916;-65
2021/04/03 12:20:30;;;;;;;5.33;2.37;;;13.10;14.40;;;;;;5073445;28;20432;-65
2021/04/03 12:22:55;;;;;;;3.90;2.47;;;13.00;15.10;;;;;;5065101;28;20469;-65
2021/04/03 12:25:21;;;;;;;3.30;2.90;;;13.10;14.60;;;;;;5070947;28;20245;-64
2021/04/03 12:27:46;;;;;;;3.10;2.90;;;13.10;15.10;;;;;;5056328;28;20172;-66
2021/04/03 12:30:13;;;;;;;5.70;3.00;;;13.10;14.10;;;;;;5061215;28;20254;-65
2021/04/03 12:32:38;;;;;;;5.30;2.20;;;13.10;14.90;;;;;;5059323;28;20184;-65
2021/04/03 12:35:04;;;;;;;3.80;2.70;;;13.30;14.20;;;;;;5069507;28;20539;-64
2021/04/03 12:37:30;;;;;;;10.70;2.70;;;13.30;14.20;;;;;;5054508;28;20558;-65
2021/04/03 12:39:55;;;;;;;6.40;2.80;;;13.10;14.50;;;;;;5060058;28;20449;-65
2021/04/03 12:42:21;;;;;;;4.43;3.20;;;13.00;15.10;;;;;;5060684;28;20207;-65
2021/04/03 12:44:46;;;;;;;3.37;2.50;;;12.90;14.70;;;;;;5063056;28;20561;-66
2021/04/03 12:47:12;;;;;;;4.07;2.70;;;12.80;14.70;;;;;;5072712;28;20167;-64
2021/04/03 12:49:37;;;;;;;2.67;2.47;;;12.80;15.50;;;;;;5073095;28;20202;-63
2021/04/03 12:52:04;;;;;;;3.03;2.73;;;12.70;14.90;;;;;;5067826;28;20957;-64